Check out our new PWSWeather beta!
PWSweather.com
Personal Weather Stations
Station Observations
PICKERING
North Yorkshire, PickeringGB

North YorkshirePickeringGB

Lat: 54.2494, Lon: -0.7725

Elevation: 192

Station Type: Oregon Scientific WMR100

High Low Average
Temperature 62.1°F16.7°C 46.2°F7.9°C 55.7°F13.2°C
Dew Point 55.4°F13.0°C 37.4°F3.0°C 49.5°F9.7°C
Winds 6.7 mph 10.8 kmh Calm Calm 3.0 mph E4.8 kmh E
Wind Gusts 13.4 mph21.6 kmh -- 4.0 mph6.4 kmh
Humidity 87% 69% 78%
Pressure 29.95 in1014.2 mb 29.56 in1001.0 mb -
Precipitation 0.24 in6.1 mm - -
Hour Temp Dew Point Humidity Winds Wind Gusts Pressure Precip Precip Rate Daily Precip Total
12:00 AM 47.7°F8.7°C 37.4°F3.0°C 69% 1.2 mph NNE1.9 kmh NNE 2.5 mph4.0 kmh 29.95 in1014.2 mb 0.00 in0.0 mm 0.00 in0.0 mm 0.00 in0.0 mm
12:05 AM 47.5°F8.6°C 37.4°F3.0°C 69% 1.3 mph NNE2.1 kmh NNE 2.5 mph4.0 kmh 29.95 in1014.2 mb 0.00 in0.0 mm 0.00 in0.0 mm 0.00 in0.0 mm
12:10 AM 47.3°F8.5°C 37.4°F3.0°C 69% 1.2 mph NNE1.9 kmh NNE 2.2 mph3.5 kmh 29.95 in1014.2 mb 0.00 in0.0 mm 0.00 in0.0 mm 0.00 in0.0 mm
12:15 AM 47.3°F8.5°C 37.4°F3.0°C 69% 0.8 mph NNE1.3 kmh NNE 2.2 mph3.5 kmh 29.95 in1014.2 mb 0.00 in0.0 mm 0.00 in0.0 mm 0.00 in0.0 mm
12:20 AM 47.3°F8.5°C 37.4°F3.0°C 69% 1.4 mph NNE2.3 kmh NNE 2.9 mph4.7 kmh 29.95 in1014.2 mb 0.00 in0.0 mm 0.00 in0.0 mm 0.00 in0.0 mm
12:25 AM 47.1°F8.4°C 37.4°F3.0°C 69% 2.3 mph NNE3.7 kmh NNE 2.9 mph4.7 kmh 29.95 in1014.2 mb 0.00 in0.0 mm 0.00 in0.0 mm 0.00 in0.0 mm
12:30 AM 46.9°F8.3°C 37.4°F3.0°C 69% 2.5 mph NNE4.0 kmh NNE 3.4 mph5.5 kmh 29.95 in1014.2 mb 0.00 in0.0 mm 0.00 in0.0 mm 0.00 in0.0 mm
12:35 AM 46.9°F8.3°C 37.4°F3.0°C 70% 2.2 mph NE3.5 kmh NE 3.4 mph5.5 kmh 29.95 in1014.2 mb 0.00 in0.0 mm 0.00 in0.0 mm 0.00 in0.0 mm
12:40 AM 46.8°F8.2°C 37.4°F3.0°C 70% 1.8 mph NNE2.9 kmh NNE 2.5 mph4.0 kmh 29.92 in1013.2 mb 0.00 in0.0 mm 0.00 in0.0 mm 0.00 in0.0 mm
12:45 AM 46.8°F8.2°C 37.4°F3.0°C 70% 2.2 mph NE3.5 kmh NE 2.9 mph4.7 kmh 29.92 in1013.2 mb 0.00 in0.0 mm 0.00 in0.0 mm 0.00 in0.0 mm
12:50 AM 46.8°F8.2°C 37.4°F3.0°C 70% 2.5 mph NE4.0 kmh NE 2.9 mph4.7 kmh 29.92 in1013.2 mb 0.00 in0.0 mm 0.00 in0.0 mm 0.00 in0.0 mm
12:55 AM 46.8°F8.2°C 37.4°F3.0°C 70% 2.4 mph NE3.9 kmh NE 3.1 mph5.0 kmh 29.95 in1014.2 mb 0.00 in0.0 mm 0.00 in0.0 mm 0.00 in0.0 mm
01:00 AM 46.8°F8.2°C 37.4°F3.0°C 70% 2.5 mph NNE4.0 kmh NNE 3.1 mph5.0 kmh 29.95 in1014.2 mb 0.00 in0.0 mm 0.00 in0.0 mm 0.00 in0.0 mm
01:05 AM 46.6°F8.1°C 37.4°F3.0°C 70% 1.7 mph NNE2.7 kmh NNE 2.7 mph4.3 kmh 29.95 in1014.2 mb 0.00 in0.0 mm 0.00 in0.0 mm 0.00 in0.0 mm
01:10 AM 46.6°F8.1°C 37.4°F3.0°C 71% 1.4 mph NNE2.3 kmh NNE 2.5 mph4.0 kmh 29.92 in1013.2 mb 0.00 in0.0 mm 0.00 in0.0 mm 0.00 in0.0 mm
01:15 AM 46.4°F8.0°C 37.4°F3.0°C 70% 1.6 mph NNE2.6 kmh NNE 2.5 mph4.0 kmh 29.92 in1013.2 mb 0.00 in0.0 mm 0.00 in0.0 mm 0.00 in0.0 mm
01:20 AM 46.6°F8.1°C 37.4°F3.0°C 71% 1.7 mph NNE2.7 kmh NNE 3.1 mph5.0 kmh 29.92 in1013.2 mb 0.00 in0.0 mm 0.00 in0.0 mm 0.00 in0.0 mm
01:25 AM 46.6°F8.1°C 37.4°F3.0°C 71% 1.9 mph NNE3.1 kmh NNE 3.4 mph5.5 kmh 29.92 in1013.2 mb 0.00 in0.0 mm 0.00 in0.0 mm 0.00 in0.0 mm
01:30 AM 46.4°F8.0°C 37.4°F3.0°C 71% 2.0 mph NNE3.2 kmh NNE 3.4 mph5.5 kmh 29.92 in1013.2 mb 0.00 in0.0 mm 0.00 in0.0 mm 0.00 in0.0 mm
01:35 AM 46.4°F8.0°C 37.4°F3.0°C 71% 2.3 mph NNE3.7 kmh NNE 3.4 mph5.5 kmh 29.92 in1013.2 mb 0.00 in0.0 mm 0.00 in0.0 mm 0.00 in0.0 mm
01:40 AM 46.4°F8.0°C 37.4°F3.0°C 71% 2.9 mph NNE4.7 kmh NNE 3.6 mph5.8 kmh 29.92 in1013.2 mb 0.00 in0.0 mm 0.00 in0.0 mm 0.00 in0.0 mm
01:45 AM 46.4°F8.0°C 37.4°F3.0°C 71% 3.3 mph NNE5.3 kmh NNE 3.8 mph6.1 kmh 29.92 in1013.2 mb 0.00 in0.0 mm 0.00 in0.0 mm 0.00 in0.0 mm
01:50 AM 46.2°F7.9°C 37.4°F3.0°C 71% 3.1 mph NNE5.0 kmh NNE 3.8 mph6.1 kmh 29.92 in1013.2 mb 0.00 in0.0 mm 0.00 in0.0 mm 0.00 in0.0 mm
01:55 AM 46.2°F7.9°C 37.4°F3.0°C 72% 3.0 mph NNE4.8 kmh NNE 3.6 mph5.8 kmh 29.92 in1013.2 mb 0.00 in0.0 mm 0.00 in0.0 mm 0.00 in0.0 mm
02:00 AM 46.2°F7.9°C 37.4°F3.0°C 72% 2.8 mph NNE4.5 kmh NNE 3.6 mph5.8 kmh 29.92 in1013.2 mb 0.00 in0.0 mm 0.00 in0.0 mm 0.00 in0.0 mm
02:05 AM 46.2°F7.9°C 37.4°F3.0°C 72% 2.5 mph NE4.0 kmh NE 3.4 mph5.5 kmh 29.92 in1013.2 mb 0.00 in0.0 mm 0.00 in0.0 mm 0.00 in0.0 mm
02:10 AM 46.4°F8.0°C 39.2°F4.0°C 72% 2.5 mph NNE4.0 kmh NNE 3.8 mph6.1 kmh 29.92 in1013.2 mb 0.00 in0.0 mm 0.00 in0.0 mm 0.00 in0.0 mm
02:15 AM 46.4°F8.0°C 39.2°F4.0°C 72% 2.1 mph NNE3.4 kmh NNE 3.8 mph6.1 kmh 29.92 in1013.2 mb 0.00 in0.0 mm 0.00 in0.0 mm 0.00 in0.0 mm
02:20 AM 46.2°F7.9°C 37.4°F3.0°C 72% 1.6 mph NE2.6 kmh NE 2.9 mph4.7 kmh 29.92 in1013.2 mb 0.00 in0.0 mm 0.00 in0.0 mm 0.00 in0.0 mm
02:25 AM 46.4°F8.0°C 39.2°F4.0°C 72% 1.6 mph NE2.6 kmh NE 2.7 mph4.3 kmh 29.92 in1013.2 mb 0.00 in0.0 mm 0.00 in0.0 mm 0.00 in0.0 mm
02:30 AM 46.4°F8.0°C 39.2°F4.0°C 72% 1.6 mph NNE2.6 kmh NNE 2.7 mph4.3 kmh 29.92 in1013.2 mb 0.00 in0.0 mm 0.00 in0.0 mm 0.00 in0.0 mm
02:35 AM 46.6°F8.1°C 39.2°F4.0°C 73% 1.9 mph NNE3.1 kmh NNE 2.9 mph4.7 kmh 29.92 in1013.2 mb 0.00 in0.0 mm 0.00 in0.0 mm 0.00 in0.0 mm
02:40 AM 46.6°F8.1°C 39.2°F4.0°C 73% 2.4 mph NNE3.9 kmh NNE 3.4 mph5.5 kmh 29.92 in1013.2 mb 0.00 in0.0 mm 0.00 in0.0 mm 0.00 in0.0 mm
02:45 AM 46.6°F8.1°C 39.2°F4.0°C 73% 2.6 mph NNE4.2 kmh NNE 3.4 mph5.5 kmh 29.92 in1013.2 mb 0.00 in0.0 mm 0.00 in0.0 mm 0.00 in0.0 mm
02:50 AM 46.6°F8.1°C 39.2°F4.0°C 73% 2.2 mph NNE3.5 kmh NNE 3.1 mph5.0 kmh 29.92 in1013.2 mb 0.00 in0.0 mm 0.00 in0.0 mm 0.00 in0.0 mm
02:55 AM 46.6°F8.1°C 39.2°F4.0°C 73% 2.0 mph NNE3.2 kmh NNE 3.8 mph6.1 kmh 29.92 in1013.2 mb 0.00 in0.0 mm 0.00 in0.0 mm 0.00 in0.0 mm
03:00 AM 46.8°F8.2°C 39.2°F4.0°C 73% 3.2 mph NNE5.1 kmh NNE 4.9 mph7.9 kmh 29.92 in1013.2 mb 0.00 in0.0 mm 0.00 in0.0 mm 0.00 in0.0 mm
03:05 AM 46.6°F8.1°C 39.2°F4.0°C 73% 3.3 mph NNE5.3 kmh NNE 4.9 mph7.9 kmh 29.92 in1013.2 mb 0.00 in0.0 mm 0.00 in0.0 mm 0.00 in0.0 mm
03:10 AM 46.8°F8.2°C 39.2°F4.0°C 73% 2.8 mph NNE4.5 kmh NNE 3.4 mph5.5 kmh 29.89 in1012.2 mb 0.00 in0.0 mm 0.00 in0.0 mm 0.00 in0.0 mm
03:15 AM 46.9°F8.3°C 39.2°F4.0°C 73% 3.0 mph NE4.8 kmh NE 3.8 mph6.1 kmh 29.89 in1012.2 mb 0.00 in0.0 mm 0.00 in0.0 mm 0.00 in0.0 mm
03:20 AM 46.9°F8.3°C 39.2°F4.0°C 74% 1.9 mph NE3.1 kmh NE 3.8 mph6.1 kmh 29.89 in1012.2 mb 0.00 in0.0 mm 0.00 in0.0 mm 0.00 in0.0 mm
03:25 AM 46.9°F8.3°C 39.2°F4.0°C 74% 1.2 mph NE1.9 kmh NE 2.9 mph4.7 kmh 29.89 in1012.2 mb 0.00 in0.0 mm 0.00 in0.0 mm 0.00 in0.0 mm
03:30 AM 47.1°F8.4°C 39.2°F4.0°C 74% 1.9 mph NNE3.1 kmh NNE 2.7 mph4.3 kmh 29.89 in1012.2 mb 0.00 in0.0 mm 0.00 in0.0 mm 0.00 in0.0 mm
03:35 AM 47.3°F8.5°C 41.0°F5.0°C 74% 1.7 mph NNE2.7 kmh NNE 2.5 mph4.0 kmh 29.89 in1012.2 mb 0.00 in0.0 mm 0.00 in0.0 mm 0.00 in0.0 mm
03:40 AM 47.5°F8.6°C 41.0°F5.0°C 74% 2.0 mph NNE3.2 kmh NNE 2.9 mph4.7 kmh 29.89 in1012.2 mb 0.00 in0.0 mm 0.00 in0.0 mm 0.00 in0.0 mm
03:45 AM 47.5°F8.6°C 41.0°F5.0°C 74% 2.3 mph NNE3.7 kmh NNE 2.9 mph4.7 kmh 29.89 in1012.2 mb 0.00 in0.0 mm 0.00 in0.0 mm 0.00 in0.0 mm
03:50 AM 47.5°F8.6°C 41.0°F5.0°C 74% 2.2 mph NNE3.5 kmh NNE 2.9 mph4.7 kmh 29.89 in1012.2 mb 0.00 in0.0 mm 0.00 in0.0 mm 0.00 in0.0 mm
03:55 AM 47.7°F8.7°C 41.0°F5.0°C 74% 2.1 mph NNE3.4 kmh NNE 2.9 mph4.7 kmh 29.89 in1012.2 mb 0.00 in0.0 mm 0.00 in0.0 mm 0.00 in0.0 mm
04:00 AM 47.7°F8.7°C 41.0°F5.0°C 74% 1.7 mph NE2.7 kmh NE 2.7 mph4.3 kmh 29.89 in1012.2 mb 0.00 in0.0 mm 0.00 in0.0 mm 0.00 in0.0 mm
04:05 AM 47.7°F8.7°C 41.0°F5.0°C 75% 1.5 mph NE2.4 kmh NE 2.7 mph4.3 kmh 29.89 in1012.2 mb 0.00 in0.0 mm 0.00 in0.0 mm 0.00 in0.0 mm
04:10 AM 47.8°F8.8°C 41.0°F5.0°C 75% 2.0 mph NNE3.2 kmh NNE 3.1 mph5.0 kmh 29.89 in1012.2 mb 0.00 in0.0 mm 0.00 in0.0 mm 0.00 in0.0 mm
04:15 AM 47.8°F8.8°C 41.0°F5.0°C 75% 2.3 mph NNE3.7 kmh NNE 3.1 mph5.0 kmh 29.89 in1012.2 mb 0.00 in0.0 mm 0.00 in0.0 mm 0.00 in0.0 mm
04:20 AM 47.8°F8.8°C 41.0°F5.0°C 75% 2.3 mph NNE3.7 kmh NNE 3.8 mph6.1 kmh 29.89 in1012.2 mb 0.00 in0.0 mm 0.00 in0.0 mm 0.00 in0.0 mm
04:25 AM 47.8°F8.8°C 41.0°F5.0°C 75% 2.5 mph NNE4.0 kmh NNE 3.8 mph6.1 kmh 29.89 in1012.2 mb 0.00 in0.0 mm 0.00 in0.0 mm 0.00 in0.0 mm
04:30 AM 47.8°F8.8°C 41.0°F5.0°C 75% 1.9 mph NE3.1 kmh NE 3.8 mph6.1 kmh 29.89 in1012.2 mb 0.00 in0.0 mm 0.00 in0.0 mm 0.00 in0.0 mm
04:35 AM 47.8°F8.8°C 41.0°F5.0°C 75% 1.5 mph NE2.4 kmh NE 2.7 mph4.3 kmh 29.89 in1012.2 mb 0.00 in0.0 mm 0.00 in0.0 mm 0.00 in0.0 mm
04:40 AM 47.8°F8.8°C 41.0°F5.0°C 75% 1.6 mph NNE2.6 kmh NNE 2.7 mph4.3 kmh 29.89 in1012.2 mb 0.00 in0.0 mm 0.00 in0.0 mm 0.00 in0.0 mm
04:45 AM 48.0°F8.9°C 41.0°F5.0°C 75% 1.0 mph NNE1.6 kmh NNE 2.2 mph3.5 kmh 29.89 in1012.2 mb 0.00 in0.0 mm 0.00 in0.0 mm 0.00 in0.0 mm
04:50 AM 48.0°F8.9°C 41.0°F5.0°C 75% 1.1 mph NNE1.8 kmh NNE 2.2 mph3.5 kmh 29.89 in1012.2 mb 0.00 in0.0 mm 0.00 in0.0 mm 0.00 in0.0 mm
04:55 AM 48.0°F8.9°C 41.0°F5.0°C 75% 1.3 mph NNE2.1 kmh NNE 2.5 mph4.0 kmh 29.89 in1012.2 mb 0.00 in0.0 mm 0.00 in0.0 mm 0.00 in0.0 mm
05:00 AM 48.4°F9.1°C 41.0°F5.0°C 75% 1.8 mph NNE2.9 kmh NNE 3.4 mph5.5 kmh 29.89 in1012.2 mb 0.00 in0.0 mm 0.00 in0.0 mm 0.00 in0.0 mm
05:05 AM 48.4°F9.1°C 41.0°F5.0°C 75% 2.4 mph NNE3.9 kmh NNE 3.4 mph5.5 kmh 29.89 in1012.2 mb 0.00 in0.0 mm 0.00 in0.0 mm 0.00 in0.0 mm
05:10 AM 48.4°F9.1°C 41.0°F5.0°C 75% 1.8 mph NNE2.9 kmh NNE 2.9 mph4.7 kmh 29.89 in1012.2 mb 0.00 in0.0 mm 0.00 in0.0 mm 0.00 in0.0 mm
05:15 AM 48.6°F9.2°C 42.8°F6.0°C 75% 1.6 mph NNE2.6 kmh NNE 2.7 mph4.3 kmh 29.89 in1012.2 mb 0.00 in0.0 mm 0.00 in0.0 mm 0.00 in0.0 mm
05:20 AM 48.6°F9.2°C 42.8°F6.0°C 75% 1.3 mph NNE2.1 kmh NNE 2.7 mph4.3 kmh 29.89 in1012.2 mb 0.00 in0.0 mm 0.00 in0.0 mm 0.00 in0.0 mm
05:25 AM 48.7°F9.3°C 42.8°F6.0°C 76% 0.9 mph NE1.4 kmh NE 2.2 mph3.5 kmh 29.89 in1012.2 mb 0.00 in0.0 mm 0.00 in0.0 mm 0.00 in0.0 mm
05:30 AM 48.7°F9.3°C 42.8°F6.0°C 76% 0.9 mph NE1.4 kmh NE 2.0 mph3.2 kmh 29.89 in1012.2 mb 0.00 in0.0 mm 0.00 in0.0 mm 0.00 in0.0 mm
05:35 AM 48.9°F9.4°C 42.8°F6.0°C 76% 1.6 mph NE2.6 kmh NE 2.7 mph4.3 kmh 29.89 in1012.2 mb 0.00 in0.0 mm 0.00 in0.0 mm 0.00 in0.0 mm
05:40 AM 49.1°F9.5°C 42.8°F6.0°C 76% 1.9 mph NE3.1 kmh NE 2.7 mph4.3 kmh 29.86 in1011.2 mb 0.00 in0.0 mm 0.00 in0.0 mm 0.00 in0.0 mm
05:45 AM 49.3°F9.6°C 42.8°F6.0°C 76% 1.3 mph NE2.1 kmh NE 2.5 mph4.0 kmh 29.86 in1011.2 mb 0.00 in0.0 mm 0.00 in0.0 mm 0.00 in0.0 mm
05:50 AM 49.3°F9.6°C 42.8°F6.0°C 76% 0.7 mph NNE1.1 kmh NNE 1.6 mph2.6 kmh 29.86 in1011.2 mb 0.00 in0.0 mm 0.00 in0.0 mm 0.00 in0.0 mm
05:55 AM 49.5°F9.7°C 42.8°F6.0°C 76% 0.1 mph NNE0.2 kmh NNE 1.1 mph1.8 kmh 29.86 in1011.2 mb 0.00 in0.0 mm 0.00 in0.0 mm 0.00 in0.0 mm
06:00 AM 49.6°F9.8°C 42.8°F6.0°C 76% 0.3 mph NNE0.5 kmh NNE 1.6 mph2.6 kmh 29.86 in1011.2 mb 0.00 in0.0 mm 0.00 in0.0 mm 0.00 in0.0 mm
06:05 AM 50.0°F10.0°C 42.8°F6.0°C 76% 0.6 mph NNE1.0 kmh NNE 2.0 mph3.2 kmh 29.86 in1011.2 mb 0.00 in0.0 mm 0.00 in0.0 mm 0.00 in0.0 mm
06:10 AM 50.0°F10.0°C 42.8°F6.0°C 76% 0.5 mph NNE0.8 kmh NNE 2.0 mph3.2 kmh 29.86 in1011.2 mb 0.00 in0.0 mm 0.00 in0.0 mm 0.00 in0.0 mm
06:15 AM 50.0°F10.0°C 42.8°F6.0°C 76% 0.4 mph NNE0.6 kmh NNE 1.6 mph2.6 kmh 29.86 in1011.2 mb 0.00 in0.0 mm 0.00 in0.0 mm 0.00 in0.0 mm
06:20 AM 50.4°F10.2°C 42.8°F6.0°C 76% 0.7 mph NNE1.1 kmh NNE 2.2 mph3.5 kmh 29.86 in1011.2 mb 0.00 in0.0 mm 0.00 in0.0 mm 0.00 in0.0 mm
06:25 AM 50.4°F10.2°C 42.8°F6.0°C 76% 0.8 mph NNE1.3 kmh NNE 2.2 mph3.5 kmh 29.86 in1011.2 mb 0.00 in0.0 mm 0.00 in0.0 mm 0.00 in0.0 mm
06:30 AM 50.7°F10.4°C 42.8°F6.0°C 76% 1.5 mph NE2.4 kmh NE 2.7 mph4.3 kmh 29.86 in1011.2 mb 0.00 in0.0 mm 0.00 in0.0 mm 0.00 in0.0 mm
06:35 AM 51.1°F10.6°C 44.6°F7.0°C 76% 1.7 mph NE2.7 kmh NE 2.7 mph4.3 kmh 29.86 in1011.2 mb 0.00 in0.0 mm 0.00 in0.0 mm 0.00 in0.0 mm
06:40 AM 51.3°F10.7°C 44.6°F7.0°C 76% 1.4 mph NNE2.3 kmh NNE 2.2 mph3.5 kmh 29.86 in1011.2 mb 0.00 in0.0 mm 0.00 in0.0 mm 0.00 in0.0 mm
06:45 AM 51.4°F10.8°C 44.6°F7.0°C 76% 1.2 mph NNE1.9 kmh NNE 2.2 mph3.5 kmh 29.86 in1011.2 mb 0.00 in0.0 mm 0.00 in0.0 mm 0.00 in0.0 mm
06:50 AM 51.4°F10.8°C 44.6°F7.0°C 77% 1.2 mph NE1.9 kmh NE 2.7 mph4.3 kmh 29.86 in1011.2 mb 0.00 in0.0 mm 0.00 in0.0 mm 0.00 in0.0 mm
06:55 AM 51.6°F10.9°C 44.6°F7.0°C 77% 1.7 mph NE2.7 kmh NE 2.7 mph4.3 kmh 29.86 in1011.2 mb 0.00 in0.0 mm 0.00 in0.0 mm 0.00 in0.0 mm
07:00 AM 51.8°F11.0°C 44.6°F7.0°C 76% 1.8 mph NE2.9 kmh NE 2.7 mph4.3 kmh 29.86 in1011.2 mb 0.00 in0.0 mm 0.00 in0.0 mm 0.00 in0.0 mm
07:05 AM 52.0°F11.1°C 44.6°F7.0°C 76% 1.8 mph NE2.9 kmh NE 2.5 mph4.0 kmh 29.86 in1011.2 mb 0.00 in0.0 mm 0.00 in0.0 mm 0.00 in0.0 mm
07:10 AM 52.0°F11.1°C 44.6°F7.0°C 76% 1.2 mph NNE1.9 kmh NNE 2.5 mph4.0 kmh 29.86 in1011.2 mb 0.00 in0.0 mm 0.00 in0.0 mm 0.00 in0.0 mm
07:15 AM 52.0°F11.1°C 44.6°F7.0°C 77% 0.4 mph NNE0.6 kmh NNE 1.6 mph2.6 kmh 29.86 in1011.2 mb 0.00 in0.0 mm 0.00 in0.0 mm 0.00 in0.0 mm
07:20 AM 52.2°F11.2°C 46.4°F8.0°C 77% 0.2 mph NNE0.3 kmh NNE 1.3 mph2.1 kmh 29.86 in1011.2 mb 0.00 in0.0 mm 0.00 in0.0 mm 0.00 in0.0 mm
07:25 AM 52.3°F11.3°C 46.4°F8.0°C 77% 0.5 mph NNE0.8 kmh NNE 1.3 mph2.1 kmh 29.86 in1011.2 mb 0.00 in0.0 mm 0.00 in0.0 mm 0.00 in0.0 mm
07:30 AM 52.5°F11.4°C 46.4°F8.0°C 77% 0.7 mph NE1.1 kmh NE 2.0 mph3.2 kmh 29.86 in1011.2 mb 0.00 in0.0 mm 0.00 in0.0 mm 0.00 in0.0 mm
07:35 AM 52.9°F11.6°C 46.4°F8.0°C 77% 1.3 mph ESE2.1 kmh ESE 2.7 mph4.3 kmh 29.86 in1011.2 mb 0.00 in0.0 mm 0.00 in0.0 mm 0.00 in0.0 mm
07:40 AM 53.1°F11.7°C 46.4°F8.0°C 77% 1.7 mph SE2.7 kmh SE 2.9 mph4.7 kmh 29.86 in1011.2 mb 0.00 in0.0 mm 0.00 in0.0 mm 0.00 in0.0 mm
07:45 AM 53.2°F11.8°C 46.4°F8.0°C 76% 1.9 mph SE3.1 kmh SE 3.4 mph5.5 kmh 29.86 in1011.2 mb 0.00 in0.0 mm 0.00 in0.0 mm 0.00 in0.0 mm
07:50 AM 53.2°F11.8°C 46.4°F8.0°C 76% 1.3 mph ESE2.1 kmh ESE 3.4 mph5.5 kmh 29.86 in1011.2 mb 0.00 in0.0 mm 0.00 in0.0 mm 0.00 in0.0 mm
07:55 AM 53.2°F11.8°C 46.4°F8.0°C 76% 1.0 mph E1.6 kmh E 2.7 mph4.3 kmh 29.86 in1011.2 mb 0.00 in0.0 mm 0.00 in0.0 mm 0.00 in0.0 mm
08:00 AM 53.6°F12.0°C 46.4°F8.0°C 76% 1.3 mph SE2.1 kmh SE 2.7 mph4.3 kmh 29.86 in1011.2 mb 0.00 in0.0 mm 0.00 in0.0 mm 0.00 in0.0 mm
08:05 AM 53.8°F12.1°C 46.4°F8.0°C 76% 1.6 mph SE2.6 kmh SE 2.5 mph4.0 kmh 29.86 in1011.2 mb 0.00 in0.0 mm 0.00 in0.0 mm 0.00 in0.0 mm
08:10 AM 54.0°F12.2°C 46.4°F8.0°C 76% 2.0 mph ESE3.2 kmh ESE 2.7 mph4.3 kmh 29.83 in1010.2 mb 0.00 in0.0 mm 0.00 in0.0 mm 0.00 in0.0 mm
08:15 AM 54.3°F12.4°C 48.2°F9.0°C 75% 2.3 mph SE3.7 kmh SE 3.8 mph6.1 kmh 29.83 in1010.2 mb 0.00 in0.0 mm 0.00 in0.0 mm 0.00 in0.0 mm
08:20 AM 54.5°F12.5°C 48.2°F9.0°C 75% 2.4 mph SE3.9 kmh SE 3.8 mph6.1 kmh 29.83 in1010.2 mb 0.00 in0.0 mm 0.00 in0.0 mm 0.00 in0.0 mm
08:25 AM 54.7°F12.6°C 48.2°F9.0°C 75% 2.6 mph SE4.2 kmh SE 3.8 mph6.1 kmh 29.83 in1010.2 mb 0.00 in0.0 mm 0.00 in0.0 mm 0.00 in0.0 mm
08:30 AM 54.7°F12.6°C 48.2°F9.0°C 75% 2.7 mph SE4.3 kmh SE 3.8 mph6.1 kmh 29.83 in1010.2 mb 0.00 in0.0 mm 0.00 in0.0 mm 0.00 in0.0 mm
08:35 AM 54.7°F12.6°C 48.2°F9.0°C 75% 2.2 mph SE3.5 kmh SE 4.3 mph6.9 kmh 29.83 in1010.2 mb 0.00 in0.0 mm 0.00 in0.0 mm 0.00 in0.0 mm
08:40 AM 54.9°F12.7°C 48.2°F9.0°C 75% 2.2 mph SE3.5 kmh SE 4.3 mph6.9 kmh 29.83 in1010.2 mb 0.00 in0.0 mm 0.00 in0.0 mm 0.00 in0.0 mm
08:45 AM 54.9°F12.7°C 48.2°F9.0°C 74% 2.6 mph SE4.2 kmh SE 3.4 mph5.5 kmh 29.83 in1010.2 mb 0.00 in0.0 mm 0.00 in0.0 mm 0.00 in0.0 mm
08:50 AM 55.2°F12.9°C 48.2°F9.0°C 75% 2.6 mph ESE4.2 kmh ESE 3.4 mph5.5 kmh 29.83 in1010.2 mb 0.00 in0.0 mm 0.00 in0.0 mm 0.00 in0.0 mm
08:55 AM 55.4°F13.0°C 48.2°F9.0°C 74% 2.8 mph ESE4.5 kmh ESE 4.0 mph6.4 kmh 29.83 in1010.2 mb 0.00 in0.0 mm 0.00 in0.0 mm 0.00 in0.0 mm
09:00 AM 55.9°F13.3°C 48.2°F9.0°C 74% 3.1 mph SE5.0 kmh SE 6.3 mph10.1 kmh 29.83 in1010.2 mb 0.00 in0.0 mm 0.00 in0.0 mm 0.00 in0.0 mm
09:05 AM 56.5°F13.6°C 48.2°F9.0°C 74% 3.2 mph SE5.1 kmh SE 6.3 mph10.1 kmh 29.83 in1010.2 mb 0.00 in0.0 mm 0.00 in0.0 mm 0.00 in0.0 mm
09:10 AM 56.8°F13.8°C 48.2°F9.0°C 74% 3.6 mph SE5.8 kmh SE 5.8 mph9.3 kmh 29.80 in1009.1 mb 0.00 in0.0 mm 0.00 in0.0 mm 0.00 in0.0 mm
09:15 AM 57.6°F14.2°C 50.0°F10.0°C 73% 3.4 mph SE5.5 kmh SE 5.8 mph9.3 kmh 29.80 in1009.1 mb 0.00 in0.0 mm 0.00 in0.0 mm 0.00 in0.0 mm
09:20 AM 58.3°F14.6°C 50.0°F10.0°C 73% 3.4 mph SE5.5 kmh SE 5.8 mph9.3 kmh 29.80 in1009.1 mb 0.00 in0.0 mm 0.00 in0.0 mm 0.00 in0.0 mm
09:30 AM 58.6°F14.8°C 50.0°F10.0°C 73% 4.2 mph SE6.8 kmh SE 5.4 mph8.7 kmh 29.80 in1009.1 mb 0.00 in0.0 mm 0.00 in0.0 mm 0.00 in0.0 mm
09:35 AM 58.8°F14.9°C 50.0°F10.0°C 73% 3.7 mph SE6.0 kmh SE 5.4 mph8.7 kmh 29.80 in1009.1 mb 0.00 in0.0 mm 0.00 in0.0 mm 0.00 in0.0 mm
09:40 AM 59.2°F15.1°C 50.0°F10.0°C 73% 4.4 mph SE7.1 kmh SE 6.3 mph10.1 kmh 29.80 in1009.1 mb 0.00 in0.0 mm 0.00 in0.0 mm 0.00 in0.0 mm
09:45 AM 59.5°F15.3°C 51.8°F11.0°C 73% 4.9 mph SE7.9 kmh SE 6.3 mph10.1 kmh 29.80 in1009.1 mb 0.00 in0.0 mm 0.00 in0.0 mm 0.00 in0.0 mm
09:50 AM 59.7°F15.4°C 51.8°F11.0°C 73% 4.7 mph SE7.6 kmh SE 6.3 mph10.1 kmh 29.80 in1009.1 mb 0.00 in0.0 mm 0.00 in0.0 mm 0.00 in0.0 mm
09:55 AM 59.9°F15.5°C 51.8°F11.0°C 73% 4.8 mph SE7.7 kmh SE 6.3 mph10.1 kmh 29.80 in1009.1 mb 0.00 in0.0 mm 0.00 in0.0 mm 0.00 in0.0 mm
10:00 AM 59.9°F15.5°C 51.8°F11.0°C 73% 4.8 mph SE7.7 kmh SE 7.8 mph12.6 kmh 29.80 in1009.1 mb 0.00 in0.0 mm 0.00 in0.0 mm 0.00 in0.0 mm
10:05 AM 60.6°F15.9°C 51.8°F11.0°C 73% 5.5 mph SE8.9 kmh SE 8.7 mph14.0 kmh 29.80 in1009.1 mb 0.00 in0.0 mm 0.00 in0.0 mm 0.00 in0.0 mm
10:10 AM 60.8°F16.0°C 51.8°F11.0°C 73% 5.1 mph SE8.2 kmh SE 8.7 mph14.0 kmh 29.80 in1009.1 mb 0.00 in0.0 mm 0.00 in0.0 mm 0.00 in0.0 mm
10:15 AM 61.0°F16.1°C 51.8°F11.0°C 73% 4.3 mph SSE6.9 kmh SSE 6.5 mph10.5 kmh 29.80 in1009.1 mb 0.00 in0.0 mm 0.00 in0.0 mm 0.00 in0.0 mm
10:20 AM 61.3°F16.3°C 53.6°F12.0°C 72% 4.7 mph SSE7.6 kmh SSE 8.5 mph13.7 kmh 29.80 in1009.1 mb 0.00 in0.0 mm 0.00 in0.0 mm 0.00 in0.0 mm
10:25 AM 61.9°F16.6°C 53.6°F12.0°C 72% 4.5 mph SE7.2 kmh SE 8.5 mph13.7 kmh 29.80 in1009.1 mb 0.00 in0.0 mm 0.00 in0.0 mm 0.00 in0.0 mm
10:30 AM 62.1°F16.7°C 53.6°F12.0°C 72% 4.7 mph SE7.6 kmh SE 7.8 mph12.6 kmh 29.80 in1009.1 mb 0.00 in0.0 mm 0.00 in0.0 mm 0.00 in0.0 mm
10:35 AM 62.1°F16.7°C 53.6°F12.0°C 71% 4.4 mph SE7.1 kmh SE 7.8 mph12.6 kmh 29.80 in1009.1 mb 0.00 in0.0 mm 0.00 in0.0 mm 0.00 in0.0 mm
10:40 AM 61.9°F16.6°C 53.6°F12.0°C 71% 4.2 mph SE6.8 kmh SE 7.8 mph12.6 kmh 29.77 in1008.1 mb 0.00 in0.0 mm 0.00 in0.0 mm 0.00 in0.0 mm
10:45 AM 61.9°F16.6°C 53.6°F12.0°C 72% 4.8 mph SSE7.7 kmh SSE 6.5 mph10.5 kmh 29.77 in1008.1 mb 0.00 in0.0 mm 0.00 in0.0 mm 0.00 in0.0 mm
10:50 AM 61.9°F16.6°C 53.6°F12.0°C 72% 4.6 mph SSE7.4 kmh SSE 6.5 mph10.5 kmh 29.77 in1008.1 mb 0.00 in0.0 mm 0.00 in0.0 mm 0.00 in0.0 mm
10:55 AM 61.9°F16.6°C 53.6°F12.0°C 72% 3.5 mph SSE5.6 kmh SSE 6.3 mph10.1 kmh 29.77 in1008.1 mb 0.00 in0.0 mm 0.00 in0.0 mm 0.00 in0.0 mm
11:00 AM 61.9°F16.6°C 53.6°F12.0°C 72% 3.8 mph SE6.1 kmh SE 5.4 mph8.7 kmh 29.77 in1008.1 mb 0.00 in0.0 mm 0.00 in0.0 mm 0.00 in0.0 mm
11:05 AM 61.7°F16.5°C 53.6°F12.0°C 72% 4.3 mph SSE6.9 kmh SSE 6.0 mph9.7 kmh 29.77 in1008.1 mb 0.00 in0.0 mm 0.00 in0.0 mm 0.00 in0.0 mm
11:10 AM 61.7°F16.5°C 53.6°F12.0°C 73% 4.6 mph SSE7.4 kmh SSE 6.0 mph9.7 kmh 29.77 in1008.1 mb 0.00 in0.0 mm 0.00 in0.0 mm 0.00 in0.0 mm
11:15 AM 61.7°F16.5°C 53.6°F12.0°C 73% 4.9 mph SSE7.9 kmh SSE 8.7 mph14.0 kmh 29.77 in1008.1 mb 0.00 in0.0 mm 0.00 in0.0 mm 0.00 in0.0 mm
11:20 AM 61.7°F16.5°C 53.6°F12.0°C 74% 4.9 mph S7.9 kmh S 8.7 mph14.0 kmh 29.77 in1008.1 mb 0.00 in0.0 mm 0.00 in0.0 mm 0.00 in0.0 mm
11:25 AM 62.1°F16.7°C 53.6°F12.0°C 74% 4.2 mph S6.8 kmh S 7.2 mph11.6 kmh 29.77 in1008.1 mb 0.00 in0.0 mm 0.00 in0.0 mm 0.00 in0.0 mm
11:30 AM 62.1°F16.7°C 53.6°F12.0°C 74% 4.0 mph SSE6.4 kmh SSE 7.4 mph11.9 kmh 29.77 in1008.1 mb 0.00 in0.0 mm 0.00 in0.0 mm 0.00 in0.0 mm
11:35 AM 61.9°F16.6°C 53.6°F12.0°C 74% 4.6 mph SE7.4 kmh SE 7.4 mph11.9 kmh 29.77 in1008.1 mb 0.00 in0.0 mm 0.00 in0.0 mm 0.00 in0.0 mm
11:40 AM 61.9°F16.6°C 53.6°F12.0°C 74% 4.4 mph SSE7.1 kmh SSE 6.0 mph9.7 kmh 29.77 in1008.1 mb 0.00 in0.0 mm 0.00 in0.0 mm 0.00 in0.0 mm
11:45 AM 61.5°F16.4°C 53.6°F12.0°C 74% 6.3 mph SSE10.1 kmh SSE 12.5 mph20.1 kmh 29.77 in1008.1 mb 0.00 in0.0 mm 0.00 in0.0 mm 0.00 in0.0 mm
11:50 AM 61.2°F16.2°C 53.6°F12.0°C 74% 6.7 mph S10.8 kmh S 12.5 mph20.1 kmh 29.77 in1008.1 mb 0.00 in0.0 mm 0.00 in0.0 mm 0.00 in0.0 mm
11:55 AM 61.0°F16.1°C 53.6°F12.0°C 75% 6.1 mph S9.8 kmh S 8.7 mph14.0 kmh 29.74 in1007.1 mb 0.00 in0.0 mm 0.00 in0.0 mm 0.00 in0.0 mm
12:00 PM 61.2°F16.2°C 53.6°F12.0°C 75% 5.6 mph S9.0 kmh S 8.7 mph14.0 kmh 29.74 in1007.1 mb 0.00 in0.0 mm 0.00 in0.0 mm 0.00 in0.0 mm
12:05 PM 61.3°F16.3°C 53.6°F12.0°C 75% 4.4 mph S7.1 kmh S 7.8 mph12.6 kmh 29.74 in1007.1 mb 0.00 in0.0 mm 0.00 in0.0 mm 0.00 in0.0 mm
12:10 PM 61.2°F16.2°C 53.6°F12.0°C 75% 4.3 mph S6.9 kmh S 6.5 mph10.5 kmh 29.74 in1007.1 mb 0.00 in0.0 mm 0.00 in0.0 mm 0.00 in0.0 mm
12:15 PM 61.3°F16.3°C 53.6°F12.0°C 76% 5.0 mph SE8.0 kmh SE 7.4 mph11.9 kmh 29.74 in1007.1 mb 0.00 in0.0 mm 0.00 in0.0 mm 0.00 in0.0 mm
12:20 PM 61.3°F16.3°C 53.6°F12.0°C 76% 4.9 mph SE7.9 kmh SE 7.4 mph11.9 kmh 29.74 in1007.1 mb 0.00 in0.0 mm 0.00 in0.0 mm 0.00 in0.0 mm
12:25 PM 61.2°F16.2°C 53.6°F12.0°C 76% 4.5 mph SE7.2 kmh SE 6.5 mph10.5 kmh 29.74 in1007.1 mb 0.00 in0.0 mm 0.00 in0.0 mm 0.00 in0.0 mm
12:30 PM 61.2°F16.2°C 53.6°F12.0°C 76% 4.6 mph SE7.4 kmh SE 6.5 mph10.5 kmh 29.74 in1007.1 mb 0.00 in0.0 mm 0.00 in0.0 mm 0.00 in0.0 mm
12:35 PM 61.2°F16.2°C 53.6°F12.0°C 76% 5.0 mph SE8.0 kmh SE 7.6 mph12.2 kmh 29.74 in1007.1 mb 0.00 in0.0 mm 0.00 in0.0 mm 0.00 in0.0 mm
12:40 PM 61.2°F16.2°C 53.6°F12.0°C 76% 4.5 mph SE7.2 kmh SE 7.6 mph12.2 kmh 29.74 in1007.1 mb 0.00 in0.0 mm 0.00 in0.0 mm 0.00 in0.0 mm
12:45 PM 61.3°F16.3°C 53.6°F12.0°C 76% 3.4 mph SSE5.5 kmh SSE 5.6 mph9.0 kmh 29.74 in1007.1 mb 0.00 in0.0 mm 0.00 in0.0 mm 0.00 in0.0 mm
12:50 PM 61.3°F16.3°C 53.6°F12.0°C 76% 4.1 mph SSE6.6 kmh SSE 8.1 mph13.0 kmh 29.74 in1007.1 mb 0.00 in0.0 mm 0.00 in0.0 mm 0.00 in0.0 mm
12:55 PM 61.2°F16.2°C 53.6°F12.0°C 76% 5.7 mph SSE9.2 kmh SSE 8.1 mph13.0 kmh 29.74 in1007.1 mb 0.00 in0.0 mm 0.00 in0.0 mm 0.00 in0.0 mm
01:00 PM 61.2°F16.2°C 53.6°F12.0°C 76% 4.7 mph SE7.6 kmh SE 8.1 mph13.0 kmh 29.74 in1007.1 mb 0.00 in0.0 mm 0.00 in0.0 mm 0.00 in0.0 mm
01:05 PM 61.3°F16.3°C 53.6°F12.0°C 76% 5.2 mph SE8.4 kmh SE 11.0 mph17.7 kmh 29.74 in1007.1 mb 0.00 in0.0 mm 0.00 in0.0 mm 0.00 in0.0 mm
01:10 PM 61.3°F16.3°C 53.6°F12.0°C 76% 5.8 mph SSE9.3 kmh SSE 11.0 mph17.7 kmh 29.74 in1007.1 mb 0.00 in0.0 mm 0.00 in0.0 mm 0.00 in0.0 mm
01:15 PM 61.2°F16.2°C 55.4°F13.0°C 77% 5.1 mph S8.2 kmh S 7.8 mph12.6 kmh 29.74 in1007.1 mb 0.00 in0.0 mm 0.00 in0.0 mm 0.00 in0.0 mm
01:20 PM 61.0°F16.1°C 53.6°F12.0°C 77% 5.4 mph S8.7 kmh S 8.7 mph14.0 kmh 29.74 in1007.1 mb 0.00 in0.0 mm 0.00 in0.0 mm 0.00 in0.0 mm
01:25 PM 60.6°F15.9°C 53.6°F12.0°C 77% 6.0 mph SSE9.7 kmh SSE 13.4 mph21.6 kmh 29.74 in1007.1 mb 0.00 in0.0 mm 0.00 in0.0 mm 0.00 in0.0 mm
01:30 PM 60.6°F15.9°C 53.6°F12.0°C 78% 6.5 mph SSE10.5 kmh SSE 13.4 mph21.6 kmh 29.74 in1007.1 mb 0.00 in0.0 mm 0.00 in0.0 mm 0.00 in0.0 mm
01:35 PM 60.6°F15.9°C 53.6°F12.0°C 78% 6.1 mph SSE9.8 kmh SSE 13.4 mph21.6 kmh 29.74 in1007.1 mb 0.00 in0.0 mm 0.00 in0.0 mm 0.00 in0.0 mm
01:40 PM 60.6°F15.9°C 53.6°F12.0°C 78% 4.3 mph SSE6.9 kmh SSE 7.4 mph11.9 kmh 29.71 in1006.1 mb 0.00 in0.0 mm 0.00 in0.0 mm 0.00 in0.0 mm
01:45 PM 60.4°F15.8°C 53.6°F12.0°C 78% 3.6 mph SSE5.8 kmh SSE 6.0 mph9.7 kmh 29.71 in1006.1 mb 0.06 in1.5 mm 0.72 in18.3 mm 0.06 in1.5 mm
01:50 PM 60.1°F15.6°C 53.6°F12.0°C 78% 5.5 mph SSE8.9 kmh SSE 10.5 mph16.9 kmh 29.71 in1006.1 mb 0.06 in1.5 mm 0.00 in0.0 mm 0.06 in1.5 mm
01:55 PM 59.9°F15.5°C 53.6°F12.0°C 79% 6.1 mph SSE9.8 kmh SSE 10.5 mph16.9 kmh 29.71 in1006.1 mb 0.06 in1.5 mm 0.00 in0.0 mm 0.06 in1.5 mm
02:00 PM 59.9°F15.5°C 53.6°F12.0°C 79% 4.6 mph SSE7.4 kmh SSE 8.1 mph13.0 kmh 29.71 in1006.1 mb 0.06 in1.5 mm 0.00 in0.0 mm 0.06 in1.5 mm
02:05 PM 59.9°F15.5°C 53.6°F12.0°C 79% 5.9 mph SSE9.5 kmh SSE 9.8 mph15.8 kmh 29.71 in1006.1 mb 0.06 in1.5 mm 0.00 in0.0 mm 0.06 in1.5 mm
02:10 PM 59.7°F15.4°C 53.6°F12.0°C 79% 5.9 mph SE9.5 kmh SE 9.8 mph15.8 kmh 29.71 in1006.1 mb 0.06 in1.5 mm 0.00 in0.0 mm 0.06 in1.5 mm
02:15 PM 59.5°F15.3°C 53.6°F12.0°C 79% 5.1 mph SE8.2 kmh SE 8.7 mph14.0 kmh 29.71 in1006.1 mb 0.06 in1.5 mm 0.00 in0.0 mm 0.06 in1.5 mm
02:20 PM 59.4°F15.2°C 53.6°F12.0°C 79% 6.4 mph SSE10.3 kmh SSE 10.1 mph16.3 kmh 29.71 in1006.1 mb 0.11 in2.8 mm 0.60 in15.2 mm 0.11 in2.8 mm
02:25 PM 59.2°F15.1°C 53.6°F12.0°C 79% 6.6 mph S10.6 kmh S 10.1 mph16.3 kmh 29.71 in1006.1 mb 0.11 in2.8 mm 0.00 in0.0 mm 0.11 in2.8 mm
02:30 PM 59.2°F15.1°C 53.6°F12.0°C 80% 4.6 mph SSE7.4 kmh SSE 7.4 mph11.9 kmh 29.71 in1006.1 mb 0.11 in2.8 mm 0.00 in0.0 mm 0.11 in2.8 mm
02:35 PM 59.2°F15.1°C 53.6°F12.0°C 80% 4.7 mph SSE7.6 kmh SSE 7.8 mph12.6 kmh 29.71 in1006.1 mb 0.11 in2.8 mm 0.00 in0.0 mm 0.11 in2.8 mm
02:40 PM 59.2°F15.1°C 53.6°F12.0°C 80% 5.4 mph S8.7 kmh S 7.8 mph12.6 kmh 29.68 in1005.1 mb 0.11 in2.8 mm 0.00 in0.0 mm 0.11 in2.8 mm
02:45 PM 59.4°F15.2°C 53.6°F12.0°C 80% 5.0 mph SSE8.0 kmh SSE 7.8 mph12.6 kmh 29.68 in1005.1 mb 0.11 in2.8 mm 0.00 in0.0 mm 0.17 in4.3 mm
02:50 PM 59.4°F15.2°C 53.6°F12.0°C 80% 5.2 mph SE8.4 kmh SE 7.8 mph12.6 kmh 29.68 in1005.1 mb 0.11 in2.8 mm 0.00 in0.0 mm 0.17 in4.3 mm
02:55 PM 59.4°F15.2°C 53.6°F12.0°C 80% 4.8 mph SE7.7 kmh SE 8.5 mph13.7 kmh 29.68 in1005.1 mb 0.11 in2.8 mm 0.00 in0.0 mm 0.17 in4.3 mm
03:00 PM 59.4°F15.2°C 53.6°F12.0°C 80% 4.5 mph SE7.2 kmh SE 8.5 mph13.7 kmh 29.68 in1005.1 mb 0.11 in2.8 mm 0.00 in0.0 mm 0.17 in4.3 mm
03:05 PM 59.4°F15.2°C 53.6°F12.0°C 80% 4.7 mph SSE7.6 kmh SSE 6.3 mph10.1 kmh 29.68 in1005.1 mb 0.18 in4.6 mm 0.84 in21.3 mm 0.24 in6.1 mm
03:10 PM 59.5°F15.3°C 53.6°F12.0°C 81% 4.3 mph SE6.9 kmh SE 6.3 mph10.1 kmh 29.68 in1005.1 mb 0.18 in4.6 mm 0.00 in0.0 mm 0.24 in6.1 mm
03:15 PM 59.5°F15.3°C 53.6°F12.0°C 81% 4.4 mph SSE7.1 kmh SSE 6.5 mph10.5 kmh 29.68 in1005.1 mb 0.18 in4.6 mm 0.00 in0.0 mm 0.24 in6.1 mm
03:20 PM 59.5°F15.3°C 53.6°F12.0°C 81% 5.3 mph SSE8.5 kmh SSE 8.7 mph14.0 kmh 29.68 in1005.1 mb 0.13 in3.3 mm 0.00 in0.0 mm 0.24 in6.1 mm
03:25 PM 59.7°F15.4°C 53.6°F12.0°C 81% 5.5 mph SE8.9 kmh SE 8.7 mph14.0 kmh 29.68 in1005.1 mb 0.13 in3.3 mm 0.00 in0.0 mm 0.24 in6.1 mm
03:30 PM 59.7°F15.4°C 55.4°F13.0°C 82% 4.7 mph SE7.6 kmh SE 6.3 mph10.1 kmh 29.68 in1005.1 mb 0.13 in3.3 mm 0.00 in0.0 mm 0.24 in6.1 mm
03:35 PM 59.7°F15.4°C 55.4°F13.0°C 82% 4.6 mph SSE7.4 kmh SSE 6.5 mph10.5 kmh 29.68 in1005.1 mb 0.13 in3.3 mm 0.00 in0.0 mm 0.24 in6.1 mm
03:40 PM 59.7°F15.4°C 55.4°F13.0°C 82% 4.5 mph SE7.2 kmh SE 6.5 mph10.5 kmh 29.68 in1005.1 mb 0.07 in1.8 mm 0.00 in0.0 mm 0.24 in6.1 mm
03:45 PM 59.7°F15.4°C 55.4°F13.0°C 82% 4.2 mph SE6.8 kmh SE 4.9 mph7.9 kmh 29.68 in1005.1 mb 0.07 in1.8 mm 0.00 in0.0 mm 0.24 in6.1 mm
03:50 PM 60.1°F15.6°C 55.4°F13.0°C 82% 3.7 mph SE6.0 kmh SE 4.3 mph6.9 kmh 29.68 in1005.1 mb 0.07 in1.8 mm 0.00 in0.0 mm 0.24 in6.1 mm
03:55 PM 60.1°F15.6°C 55.4°F13.0°C 82% 3.5 mph SE5.6 kmh SE 7.6 mph12.2 kmh 29.65 in1004.1 mb 0.07 in1.8 mm 0.00 in0.0 mm 0.24 in6.1 mm
04:00 PM 59.9°F15.5°C 55.4°F13.0°C 82% 3.3 mph SE5.3 kmh SE 7.6 mph12.2 kmh 29.65 in1004.1 mb 0.07 in1.8 mm 0.00 in0.0 mm 0.24 in6.1 mm
04:05 PM 59.7°F15.4°C 55.4°F13.0°C 82% 3.4 mph SE5.5 kmh SE 5.8 mph9.3 kmh 29.65 in1004.1 mb 0.00 in0.0 mm 0.00 in0.0 mm 0.24 in6.1 mm
04:10 PM 59.7°F15.4°C 55.4°F13.0°C 83% 3.4 mph SE5.5 kmh SE 5.8 mph9.3 kmh 29.65 in1004.1 mb 0.00 in0.0 mm 0.00 in0.0 mm 0.24 in6.1 mm
04:15 PM 59.7°F15.4°C 55.4°F13.0°C 83% 3.1 mph SSE5.0 kmh SSE 4.0 mph6.4 kmh 29.65 in1004.1 mb 0.00 in0.0 mm 0.00 in0.0 mm 0.24 in6.1 mm
04:20 PM 59.7°F15.4°C 55.4°F13.0°C 83% 3.3 mph SSE5.3 kmh SSE 5.4 mph8.7 kmh 29.65 in1004.1 mb 0.00 in0.0 mm 0.00 in0.0 mm 0.24 in6.1 mm
04:25 PM 59.5°F15.3°C 55.4°F13.0°C 82% 3.4 mph S5.5 kmh S 5.4 mph8.7 kmh 29.65 in1004.1 mb 0.00 in0.0 mm 0.00 in0.0 mm 0.24 in6.1 mm
04:30 PM 59.5°F15.3°C 55.4°F13.0°C 83% 3.5 mph SSE5.6 kmh SSE 5.6 mph9.0 kmh 29.65 in1004.1 mb 0.00 in0.0 mm 0.00 in0.0 mm 0.24 in6.1 mm
04:35 PM 59.5°F15.3°C 55.4°F13.0°C 82% 3.2 mph SE5.1 kmh SE 5.6 mph9.0 kmh 29.65 in1004.1 mb 0.00 in0.0 mm 0.00 in0.0 mm 0.24 in6.1 mm
04:40 PM 59.5°F15.3°C 55.4°F13.0°C 83% 3.0 mph SE4.8 kmh SE 4.0 mph6.4 kmh 29.62 in1003.0 mb 0.00 in0.0 mm 0.00 in0.0 mm 0.24 in6.1 mm
04:45 PM 59.5°F15.3°C 55.4°F13.0°C 83% 3.2 mph SE5.1 kmh SE 4.0 mph6.4 kmh 29.62 in1003.0 mb 0.00 in0.0 mm 0.00 in0.0 mm 0.24 in6.1 mm
04:50 PM 59.5°F15.3°C 55.4°F13.0°C 82% 2.5 mph SSE4.0 kmh SSE 3.8 mph6.1 kmh 29.62 in1003.0 mb 0.00 in0.0 mm 0.00 in0.0 mm 0.24 in6.1 mm
04:55 PM 59.7°F15.4°C 55.4°F13.0°C 83% 2.5 mph SSE4.0 kmh SSE 4.3 mph6.9 kmh 29.62 in1003.0 mb 0.00 in0.0 mm 0.00 in0.0 mm 0.24 in6.1 mm
05:00 PM 59.7°F15.4°C 55.4°F13.0°C 82% 2.9 mph SSE4.7 kmh SSE 4.3 mph6.9 kmh 29.62 in1003.0 mb 0.00 in0.0 mm 0.00 in0.0 mm 0.24 in6.1 mm
05:05 PM 59.7°F15.4°C 55.4°F13.0°C 83% 2.8 mph SSE4.5 kmh SSE 5.6 mph9.0 kmh 29.62 in1003.0 mb 0.00 in0.0 mm 0.00 in0.0 mm 0.24 in6.1 mm
05:10 PM 59.7°F15.4°C 55.4°F13.0°C 83% 2.8 mph SSE4.5 kmh SSE 5.6 mph9.0 kmh 29.62 in1003.0 mb 0.00 in0.0 mm 0.00 in0.0 mm 0.24 in6.1 mm
05:15 PM 59.9°F15.5°C 55.4°F13.0°C 83% 4.0 mph SSE6.4 kmh SSE 5.8 mph9.3 kmh 29.62 in1003.0 mb 0.00 in0.0 mm 0.00 in0.0 mm 0.24 in6.1 mm
05:20 PM 60.1°F15.6°C 55.4°F13.0°C 83% 4.4 mph S7.1 kmh S 6.5 mph10.5 kmh 29.62 in1003.0 mb 0.00 in0.0 mm 0.00 in0.0 mm 0.24 in6.1 mm
05:25 PM 60.1°F15.6°C 55.4°F13.0°C 82% 4.1 mph S6.6 kmh S 6.5 mph10.5 kmh 29.62 in1003.0 mb 0.00 in0.0 mm 0.00 in0.0 mm 0.24 in6.1 mm
05:30 PM 60.1°F15.6°C 55.4°F13.0°C 82% 3.8 mph S6.1 kmh S 6.5 mph10.5 kmh 29.62 in1003.0 mb 0.00 in0.0 mm 0.00 in0.0 mm 0.24 in6.1 mm
05:35 PM 60.1°F15.6°C 55.4°F13.0°C 82% 3.5 mph S5.6 kmh S 6.5 mph10.5 kmh 29.62 in1003.0 mb 0.00 in0.0 mm 0.00 in0.0 mm 0.24 in6.1 mm
05:40 PM 60.1°F15.6°C 55.4°F13.0°C 82% 4.0 mph S6.4 kmh S 5.4 mph8.7 kmh 29.62 in1003.0 mb 0.00 in0.0 mm 0.00 in0.0 mm 0.24 in6.1 mm
05:45 PM 60.1°F15.6°C 55.4°F13.0°C 82% 3.7 mph S6.0 kmh S 5.4 mph8.7 kmh 29.62 in1003.0 mb 0.00 in0.0 mm 0.00 in0.0 mm 0.24 in6.1 mm
05:50 PM 59.9°F15.5°C 55.4°F13.0°C 82% 3.2 mph SSE5.1 kmh SSE 4.3 mph6.9 kmh 29.62 in1003.0 mb 0.00 in0.0 mm 0.00 in0.0 mm 0.24 in6.1 mm
05:55 PM 59.9°F15.5°C 55.4°F13.0°C 82% 3.3 mph SSE5.3 kmh SSE 4.3 mph6.9 kmh 29.62 in1003.0 mb 0.00 in0.0 mm 0.00 in0.0 mm 0.24 in6.1 mm
06:00 PM 59.9°F15.5°C 55.4°F13.0°C 82% 3.0 mph SSE4.8 kmh SSE 4.3 mph6.9 kmh 29.62 in1003.0 mb 0.00 in0.0 mm 0.00 in0.0 mm 0.24 in6.1 mm
06:05 PM 59.9°F15.5°C 55.4°F13.0°C 82% 2.8 mph SSE4.5 kmh SSE 4.0 mph6.4 kmh 29.62 in1003.0 mb 0.00 in0.0 mm 0.00 in0.0 mm 0.24 in6.1 mm
06:10 PM 59.9°F15.5°C 55.4°F13.0°C 82% 3.3 mph SSE5.3 kmh SSE 4.5 mph7.2 kmh 29.62 in1003.0 mb 0.00 in0.0 mm 0.00 in0.0 mm 0.24 in6.1 mm
06:15 PM 59.7°F15.4°C 55.4°F13.0°C 82% 4.0 mph SSE6.4 kmh SSE 8.1 mph13.0 kmh 29.62 in1003.0 mb 0.00 in0.0 mm 0.00 in0.0 mm 0.24 in6.1 mm
06:20 PM 59.7°F15.4°C 55.4°F13.0°C 82% 3.9 mph SSE6.3 kmh SSE 8.1 mph13.0 kmh 29.62 in1003.0 mb 0.00 in0.0 mm 0.00 in0.0 mm 0.24 in6.1 mm
06:25 PM 59.7°F15.4°C 55.4°F13.0°C 82% 3.3 mph SSE5.3 kmh SSE 6.5 mph10.5 kmh 29.62 in1003.0 mb 0.00 in0.0 mm 0.00 in0.0 mm 0.24 in6.1 mm
06:30 PM 59.7°F15.4°C 55.4°F13.0°C 83% 3.0 mph SSE4.8 kmh SSE 4.0 mph6.4 kmh 29.62 in1003.0 mb 0.00 in0.0 mm 0.00 in0.0 mm 0.24 in6.1 mm
06:35 PM 59.5°F15.3°C 55.4°F13.0°C 83% 3.1 mph SSE5.0 kmh SSE 4.0 mph6.4 kmh 29.62 in1003.0 mb 0.00 in0.0 mm 0.00 in0.0 mm 0.24 in6.1 mm
06:40 PM 59.5°F15.3°C 55.4°F13.0°C 83% 3.2 mph SSE5.1 kmh SSE 4.7 mph7.6 kmh 29.59 in1002.0 mb 0.00 in0.0 mm 0.00 in0.0 mm 0.24 in6.1 mm
06:45 PM 59.5°F15.3°C 55.4°F13.0°C 83% 2.7 mph SSE4.3 kmh SSE 4.7 mph7.6 kmh 29.59 in1002.0 mb 0.00 in0.0 mm 0.00 in0.0 mm 0.24 in6.1 mm
06:50 PM 59.4°F15.2°C 55.4°F13.0°C 83% 2.7 mph SSE4.3 kmh SSE 4.0 mph6.4 kmh 29.59 in1002.0 mb 0.00 in0.0 mm 0.00 in0.0 mm 0.24 in6.1 mm
06:55 PM 59.4°F15.2°C 55.4°F13.0°C 83% 3.1 mph SSE5.0 kmh SSE 5.4 mph8.7 kmh 29.59 in1002.0 mb 0.00 in0.0 mm 0.00 in0.0 mm 0.24 in6.1 mm
07:00 PM 59.4°F15.2°C 55.4°F13.0°C 83% 2.3 mph SSE3.7 kmh SSE 5.4 mph8.7 kmh 29.59 in1002.0 mb 0.00 in0.0 mm 0.00 in0.0 mm 0.24 in6.1 mm
07:05 PM 59.4°F15.2°C 55.4°F13.0°C 83% 1.8 mph SSE2.9 kmh SSE 3.1 mph5.0 kmh 29.59 in1002.0 mb 0.00 in0.0 mm 0.00 in0.0 mm 0.24 in6.1 mm
07:10 PM 59.2°F15.1°C 53.6°F12.0°C 83% 2.0 mph SE3.2 kmh SE 3.1 mph5.0 kmh 29.59 in1002.0 mb 0.00 in0.0 mm 0.00 in0.0 mm 0.24 in6.1 mm
07:15 PM 59.2°F15.1°C 53.6°F12.0°C 83% 1.5 mph SE2.4 kmh SE 2.9 mph4.7 kmh 29.59 in1002.0 mb 0.00 in0.0 mm 0.00 in0.0 mm 0.24 in6.1 mm
07:20 PM 59.2°F15.1°C 53.6°F12.0°C 83% 1.9 mph SE3.1 kmh SE 4.3 mph6.9 kmh 29.59 in1002.0 mb 0.00 in0.0 mm 0.00 in0.0 mm 0.24 in6.1 mm
07:25 PM 59.0°F15.0°C 53.6°F12.0°C 83% 2.5 mph SE4.0 kmh SE 4.3 mph6.9 kmh 29.59 in1002.0 mb 0.00 in0.0 mm 0.00 in0.0 mm 0.24 in6.1 mm
07:30 PM 59.0°F15.0°C 53.6°F12.0°C 83% 2.6 mph SE4.2 kmh SE 3.6 mph5.8 kmh 29.59 in1002.0 mb 0.00 in0.0 mm 0.00 in0.0 mm 0.24 in6.1 mm
07:35 PM 59.0°F15.0°C 55.4°F13.0°C 84% 2.8 mph SE4.5 kmh SE 3.6 mph5.8 kmh 29.59 in1002.0 mb 0.00 in0.0 mm 0.00 in0.0 mm 0.24 in6.1 mm
07:40 PM 59.0°F15.0°C 55.4°F13.0°C 84% 2.7 mph SE4.3 kmh SE 3.6 mph5.8 kmh 29.59 in1002.0 mb 0.00 in0.0 mm 0.00 in0.0 mm 0.24 in6.1 mm
07:45 PM 58.8°F14.9°C 55.4°F13.0°C 84% 2.6 mph SE4.2 kmh SE 3.6 mph5.8 kmh 29.59 in1002.0 mb 0.00 in0.0 mm 0.00 in0.0 mm 0.24 in6.1 mm
07:50 PM 58.8°F14.9°C 55.4°F13.0°C 84% 2.2 mph SE3.5 kmh SE 3.4 mph5.5 kmh 29.59 in1002.0 mb 0.00 in0.0 mm 0.00 in0.0 mm 0.24 in6.1 mm
07:55 PM 58.8°F14.9°C 55.4°F13.0°C 84% 1.6 mph SE2.6 kmh SE 3.4 mph5.5 kmh 29.59 in1002.0 mb 0.00 in0.0 mm 0.00 in0.0 mm 0.24 in6.1 mm
08:00 PM 58.8°F14.9°C 55.4°F13.0°C 84% 2.3 mph SSE3.7 kmh SSE 5.4 mph8.7 kmh 29.59 in1002.0 mb 0.00 in0.0 mm 0.00 in0.0 mm 0.24 in6.1 mm
08:05 PM 58.8°F14.9°C 55.4°F13.0°C 84% 3.1 mph SE5.0 kmh SE 5.4 mph8.7 kmh 29.59 in1002.0 mb 0.00 in0.0 mm 0.00 in0.0 mm 0.24 in6.1 mm
08:20 PM 58.6°F14.8°C 53.6°F12.0°C 84% 1.8 mph E2.9 kmh E 2.9 mph4.7 kmh 29.59 in1002.0 mb 0.00 in0.0 mm 0.00 in0.0 mm 0.24 in6.1 mm
08:25 PM 58.6°F14.8°C 55.4°F13.0°C 85% 2.1 mph ESE3.4 kmh ESE 3.4 mph5.5 kmh 29.59 in1002.0 mb 0.00 in0.0 mm 0.00 in0.0 mm 0.24 in6.1 mm
08:30 PM 58.6°F14.8°C 55.4°F13.0°C 85% 1.6 mph ESE2.6 kmh ESE 3.4 mph5.5 kmh 29.59 in1002.0 mb 0.00 in0.0 mm 0.00 in0.0 mm 0.24 in6.1 mm
08:35 PM 58.6°F14.8°C 55.4°F13.0°C 85% 1.2 mph ESE1.9 kmh ESE 2.7 mph4.3 kmh 29.59 in1002.0 mb 0.00 in0.0 mm 0.00 in0.0 mm 0.24 in6.1 mm
08:40 PM 58.6°F14.8°C 55.4°F13.0°C 85% 1.6 mph SE2.6 kmh SE 2.7 mph4.3 kmh 29.59 in1002.0 mb 0.00 in0.0 mm 0.00 in0.0 mm 0.24 in6.1 mm
08:45 PM 58.6°F14.8°C 55.4°F13.0°C 85% 1.7 mph SE2.7 kmh SE 3.1 mph5.0 kmh 29.59 in1002.0 mb 0.00 in0.0 mm 0.00 in0.0 mm 0.24 in6.1 mm
08:50 PM 58.6°F14.8°C 55.4°F13.0°C 85% 1.5 mph SE2.4 kmh SE 3.1 mph5.0 kmh 29.59 in1002.0 mb 0.00 in0.0 mm 0.00 in0.0 mm 0.24 in6.1 mm
08:55 PM 58.6°F14.8°C 55.4°F13.0°C 85% 1.6 mph SE2.6 kmh SE 3.4 mph5.5 kmh 29.59 in1002.0 mb 0.00 in0.0 mm 0.00 in0.0 mm 0.24 in6.1 mm
09:00 PM 58.5°F14.7°C 55.4°F13.0°C 85% 2.2 mph SE3.5 kmh SE 3.4 mph5.5 kmh 29.59 in1002.0 mb 0.00 in0.0 mm 0.00 in0.0 mm 0.24 in6.1 mm
09:05 PM 58.5°F14.7°C 55.4°F13.0°C 85% 1.6 mph SE2.6 kmh SE 2.7 mph4.3 kmh 29.59 in1002.0 mb 0.00 in0.0 mm 0.00 in0.0 mm 0.24 in6.1 mm
09:10 PM 58.5°F14.7°C 55.4°F13.0°C 85% 1.6 mph SE2.6 kmh SE 2.7 mph4.3 kmh 29.56 in1001.0 mb 0.00 in0.0 mm 0.00 in0.0 mm 0.24 in6.1 mm
09:15 PM 58.5°F14.7°C 55.4°F13.0°C 85% 2.0 mph SE3.2 kmh SE 2.7 mph4.3 kmh 29.56 in1001.0 mb 0.00 in0.0 mm 0.00 in0.0 mm 0.24 in6.1 mm
09:20 PM 58.5°F14.7°C 55.4°F13.0°C 86% 1.5 mph SE2.4 kmh SE 2.7 mph4.3 kmh 29.56 in1001.0 mb 0.00 in0.0 mm 0.00 in0.0 mm 0.24 in6.1 mm
09:25 PM 58.5°F14.7°C 55.4°F13.0°C 85% 1.4 mph SE2.3 kmh SE 3.6 mph5.8 kmh 29.56 in1001.0 mb 0.00 in0.0 mm 0.00 in0.0 mm 0.24 in6.1 mm
09:30 PM 58.5°F14.7°C 55.4°F13.0°C 86% 0.9 mph SE1.4 kmh SE 3.6 mph5.8 kmh 29.56 in1001.0 mb 0.00 in0.0 mm 0.00 in0.0 mm 0.24 in6.1 mm
09:35 PM 58.5°F14.7°C 55.4°F13.0°C 86% 0.4 mph SE0.6 kmh SE 1.6 mph2.6 kmh 29.56 in1001.0 mb 0.00 in0.0 mm 0.00 in0.0 mm 0.24 in6.1 mm
09:40 PM 58.5°F14.7°C 55.4°F13.0°C 86% 0.4 mph SE0.6 kmh SE 1.6 mph2.6 kmh 29.56 in1001.0 mb 0.00 in0.0 mm 0.00 in0.0 mm 0.24 in6.1 mm
09:45 PM 58.5°F14.7°C 55.4°F13.0°C 86% 0.3 mph NE0.5 kmh NE 2.0 mph3.2 kmh 29.56 in1001.0 mb 0.00 in0.0 mm 0.00 in0.0 mm 0.24 in6.1 mm
09:50 PM 58.5°F14.7°C 55.4°F13.0°C 86% 0.3 mph NE0.5 kmh NE 2.0 mph3.2 kmh 29.56 in1001.0 mb 0.00 in0.0 mm 0.00 in0.0 mm 0.24 in6.1 mm
09:55 PM 58.5°F14.7°C 55.4°F13.0°C 86% Calm Calm -- 29.56 in1001.0 mb 0.00 in0.0 mm 0.00 in0.0 mm 0.24 in6.1 mm
10:00 PM 58.5°F14.7°C 55.4°F13.0°C 86% Calm Calm -- 29.56 in1001.0 mb 0.00 in0.0 mm 0.00 in0.0 mm 0.24 in6.1 mm
10:05 PM 58.5°F14.7°C 55.4°F13.0°C 86% Calm Calm -- 29.56 in1001.0 mb 0.00 in0.0 mm 0.00 in0.0 mm 0.24 in6.1 mm
10:10 PM 58.5°F14.7°C 55.4°F13.0°C 86% Calm Calm -- 29.56 in1001.0 mb 0.00 in0.0 mm 0.00 in0.0 mm 0.24 in6.1 mm
10:15 PM 58.5°F14.7°C 55.4°F13.0°C 86% Calm Calm -- 29.56 in1001.0 mb 0.00 in0.0 mm 0.00 in0.0 mm 0.24 in6.1 mm
10:20 PM 58.5°F14.7°C 55.4°F13.0°C 86% Calm Calm -- 29.56 in1001.0 mb 0.00 in0.0 mm 0.00 in0.0 mm 0.24 in6.1 mm
10:25 PM 58.5°F14.7°C 55.4°F13.0°C 86% Calm Calm -- 29.56 in1001.0 mb 0.00 in0.0 mm 0.00 in0.0 mm 0.24 in6.1 mm
10:30 PM 58.5°F14.7°C 55.4°F13.0°C 86% 0.1 mph NNW0.2 kmh NNW 1.1 mph1.8 kmh 29.56 in1001.0 mb 0.00 in0.0 mm 0.00 in0.0 mm 0.24 in6.1 mm
10:35 PM 58.5°F14.7°C 55.4°F13.0°C 86% 0.1 mph NNW0.2 kmh NNW 1.1 mph1.8 kmh 29.56 in1001.0 mb 0.00 in0.0 mm 0.00 in0.0 mm 0.24 in6.1 mm
10:40 PM 58.5°F14.7°C 55.4°F13.0°C 86% 0.4 mph NNW0.6 kmh NNW 1.3 mph2.1 kmh 29.56 in1001.0 mb 0.00 in0.0 mm 0.00 in0.0 mm 0.24 in6.1 mm
10:45 PM 58.5°F14.7°C 55.4°F13.0°C 86% 0.4 mph N0.6 kmh N 1.3 mph2.1 kmh 29.56 in1001.0 mb 0.00 in0.0 mm 0.00 in0.0 mm 0.24 in6.1 mm
10:50 PM 58.5°F14.7°C 55.4°F13.0°C 86% 0.1 mph E0.2 kmh E 0.9 mph1.4 kmh 29.56 in1001.0 mb 0.00 in0.0 mm 0.00 in0.0 mm 0.24 in6.1 mm
10:55 PM 58.5°F14.7°C 55.4°F13.0°C 86% Calm Calm -- 29.56 in1001.0 mb 0.00 in0.0 mm 0.00 in0.0 mm 0.24 in6.1 mm
11:00 PM 58.5°F14.7°C 55.4°F13.0°C 86% Calm Calm -- 29.56 in1001.0 mb 0.00 in0.0 mm 0.00 in0.0 mm 0.18 in4.6 mm
11:05 PM 58.5°F14.7°C 55.4°F13.0°C 86% Calm Calm -- 29.56 in1001.0 mb 0.00 in0.0 mm 0.00 in0.0 mm 0.18 in4.6 mm
11:10 PM 58.5°F14.7°C 55.4°F13.0°C 86% Calm Calm -- 29.56 in1001.0 mb 0.00 in0.0 mm 0.00 in0.0 mm 0.18 in4.6 mm
11:15 PM 58.5°F14.7°C 55.4°F13.0°C 86% Calm Calm -- 29.56 in1001.0 mb 0.00 in0.0 mm 0.00 in0.0 mm 0.18 in4.6 mm
11:20 PM 58.5°F14.7°C 55.4°F13.0°C 86% Calm Calm -- 29.56 in1001.0 mb 0.00 in0.0 mm 0.00 in0.0 mm 0.18 in4.6 mm
11:25 PM 58.5°F14.7°C 55.4°F13.0°C 86% Calm Calm -- 29.56 in1001.0 mb 0.00 in0.0 mm 0.00 in0.0 mm 0.18 in4.6 mm
11:30 PM 58.5°F14.7°C 55.4°F13.0°C 86% Calm Calm -- 29.56 in1001.0 mb 0.00 in0.0 mm 0.00 in0.0 mm 0.18 in4.6 mm
11:35 PM 58.6°F14.8°C 55.4°F13.0°C 86% Calm Calm -- 29.56 in1001.0 mb 0.00 in0.0 mm 0.00 in0.0 mm 0.18 in4.6 mm
11:40 PM 58.6°F14.8°C 55.4°F13.0°C 87% Calm Calm -- 29.56 in1001.0 mb 0.00 in0.0 mm 0.00 in0.0 mm 0.18 in4.6 mm
11:45 PM 58.6°F14.8°C 55.4°F13.0°C 87% Calm Calm -- 29.56 in1001.0 mb 0.00 in0.0 mm 0.00 in0.0 mm 0.18 in4.6 mm
11:50 PM 58.6°F14.8°C 55.4°F13.0°C 87% 0.5 mph SW0.8 kmh SW 2.5 mph4.0 kmh 29.56 in1001.0 mb 0.00 in0.0 mm 0.00 in0.0 mm 0.18 in4.6 mm
11:55 PM 58.6°F14.8°C 55.4°F13.0°C 87% 0.7 mph SW1.1 kmh SW 2.5 mph4.0 kmh 29.56 in1001.0 mb 0.06 in1.5 mm 0.72 in18.3 mm 0.06 in1.5 mm